Map

Track Data

SID SEASON NUMBER BASIN SUBBASIN NAME ISO_TIME NATURE LAT LON WMO_WIND WMO_PRES WMO_AGENCY TRACK_TYPE DIST2LAND LANDFALL IFLAG USA_AGENCY USA_ATCF_ID USA_LAT USA_LON USA_RECORD USA_STATUS USA_WIND USA_PRES USA_SSHS USA_R34_NE USA_R34_SE USA_R34_SW USA_R34_NW USA_R50_NE USA_R50_SE USA_R50_SW USA_R50_NW USA_R64_NE USA_R64_SE USA_R64_SW USA_R64_NW USA_POCI USA_ROCI USA_RMW USA_EYE TOKYO_LAT TOKYO_LON TOKYO_GRADE TOKYO_WIND TOKYO_PRES TOKYO_R50_DIR TOKYO_R50_LONG TOKYO_R50_SHORT TOKYO_R30_DIR TOKYO_R30_LONG TOKYO_R30_SHORT TOKYO_LAND CMA_LAT CMA_LON CMA_CAT CMA_WIND CMA_PRES HKO_LAT HKO_LON HKO_CAT HKO_WIND HKO_PRES NEWDELHI_LAT NEWDELHI_LON NEWDELHI_GRADE NEWDELHI_WIND NEWDELHI_PRES NEWDELHI_CI NEWDELHI_DP NEWDELHI_POCI REUNION_LAT REUNION_LON REUNION_TYPE REUNION_WIND REUNION_PRES REUNION_TNUM REUNION_CI REUNION_RMW REUNION_R34_NE REUNION_R34_SE REUNION_R34_SW REUNION_R34_NW REUNION_R50_NE REUNION_R50_SE REUNION_R50_SW REUNION_R50_NW REUNION_R64_NE REUNION_R64_SE REUNION_R64_SW REUNION_R64_NW BOM_LAT BOM_LON BOM_TYPE BOM_WIND BOM_PRES BOM_TNUM BOM_CI BOM_RMW BOM_R34_NE BOM_R34_SE BOM_R34_SW BOM_R34_NW BOM_R50_NE BOM_R50_SE BOM_R50_SW BOM_R50_NW BOM_R64_NE BOM_R64_SE BOM_R64_SW BOM_R64_NW BOM_ROCI BOM_POCI BOM_EYE BOM_POS_METHOD BOM_PRES_METHOD NADI_LAT NADI_LON NADI_CAT NADI_WIND NADI_PRES WELLINGTON_LAT WELLINGTON_LON WELLINGTON_WIND WELLINGTON_PRES DS824_LAT DS824_LON DS824_STAGE DS824_WIND DS824_PRES TD9636_LAT TD9636_LON TD9636_STAGE TD9636_WIND TD9636_PRES TD9635_LAT TD9635_LON TD9635_WIND TD9635_PRES TD9635_ROCI NEUMANN_LAT NEUMANN_LON NEUMANN_CLASS NEUMANN_WIND NEUMANN_PRES MLC_LAT MLC_LON MLC_CLASS MLC_WIND MLC_PRES USA_GUST BOM_GUST BOM_GUST_PER REUNION_GUST REUNION_GUST_PER USA_SEAHGT USA_SEARAD_NE USA_SEARAD_SE USA_SEARAD_SW USA_SEARAD_NW STORM_SPEED STORM_DIR
1967270N20089 1967 110 NI BB NOT_NAMED 1967-09-26 15:00:00 NR 20.1000 89.1000 main 167 167 __________O___ -1 20.1000 89.1000 1 0 0
1967270N20089 1967 110 NI BB NOT_NAMED 1967-09-26 18:00:00 TS 20.1039 89.0991 main 167 167 O________OP___ jtwc_io IO071967 20.1000 89.1000 -1 20.1000 89.1000 TC 20.1078 89.0983 1 0 35
1967270N20089 1967 110 NI BB NOT_NAMED 1967-09-26 21:00:00 TS 20.1325 89.1060 main 167 156 P________PP___ IO071967 20.1325 89.1200 -1 20.1325 89.1200 TC 20.1324 89.0872 1 1 0
1967270N20089 1967 110 NI BB NOT_NAMED 1967-09-27 00:00:00 TS 20.1964 89.0830 main 156 145 O________OP___ jtwc_io IO071967 20.2000 89.1000 -1 20.2000 89.1000 TC 25 20.1909 89.0576 1 2 335
1967270N20089 1967 110 NI BB NOT_NAMED 1967-09-27 03:00:00 TS 20.3183 89.0100 main 145 123 P________PO___ IO071967 20.3275 89.0150 -1 20.3275 89.0150 TC 25 20.3000 89.0000 1 3 330
1967270N20089 1967 110 NI BB NOT_NAMED 1967-09-27 06:00:00 TS 20.4897 88.9032 main 123 101 O________OP___ jtwc_io IO071967 20.5000 88.9000 -1 20.5000 88.9000 TC 25 20.4691 88.9096 1 4 332
1967270N20089 1967 110 NI BB NOT_NAMED 1967-09-27 09:00:00 TS 20.6925 88.8001 main 101 80 P________PP___ IO071967 20.7000 88.8000 -1 20.7000 88.8000 TC 25 20.6776 88.8004 1 5 335
1967270N20089 1967 110 NI BB NOT_NAMED 1967-09-27 12:00:00 TS 20.8991 88.6970 main 80 56 O________OP___ jtwc_io IO071967 20.9000 88.7000 -1 20.9000 88.7000 TC 25 20.8973 88.6909 1 4 332
1967270N20089 1967 110 NI BB NOT_NAMED 1967-09-27 15:00:00 TS 21.0717 88.5900 main 56 44 P________PO___ IO071967 21.0575 88.5850 -1 21.0575 88.5850 TC 25 21.1000 88.6000 1 4 330
1967270N20089 1967 110 NI BB NOT_NAMED 1967-09-27 18:00:00 TS 21.2087 88.5070 main 44 33 O________OP___ jtwc_io IO071967 21.2000 88.5000 -1 21.2000 88.5000 TC 25 21.2262 88.5211 1 3 339
1967270N20089 1967 110 NI BB NOT_NAMED 1967-09-27 21:00:00 TS 21.3449 88.4743 main 33 11 P________PP___ IO071967 21.3500 88.4775 -1 21.3500 88.4775 TC 25 21.3348 88.4678 1 3 0
1967270N20089 1967 110 NI BB NOT_NAMED 1967-09-28 00:00:00 TS 21.4837 88.4852 main 11 0 O________OP___ jtwc_io IO071967 21.5000 88.5000 -1 21.5000 88.5000 TC 25 21.4511 88.4556 1 3 9
1967270N20089 1967 110 NI BB NOT_NAMED 1967-09-28 03:00:00 TS 21.6183 88.5184 main 0 0 P________PO___ IO071967 21.6275 88.5276 -1 21.6275 88.5276 TC 25 21.6000 88.5000 1 3 18
1967270N20089 1967 110 NI BB NOT_NAMED 1967-09-28 06:00:00 TS 21.8101 88.5990 main 0 0 O________OP___ jtwc_io IO071967 21.8000 88.6000 -1 21.8000 88.6000 TC 25 21.8302 88.5969 1 5 22
1967270N20089 1967 110 NI BB NOT_NAMED 1967-09-28 09:00:00 TS 22.0924 88.7257 main 0 0 P________PP___ IO071967 22.0924 88.7125 -1 22.0924 88.7125 TC 25 22.0923 88.7522 1 7 27
1967270N20089 1967 110 NI BB NOT_NAMED 1967-09-28 12:00:00 TS 22.3861 88.9188 main 0 0 O________OP___ jtwc_io IO071967 22.4000 88.9000 -1 22.4000 88.9000 TC 25 22.3583 88.9563 1 7 39
1967270N20089 1967 110 NI BB NOT_NAMED 1967-09-28 15:00:00 TS 22.6200 89.1850 main 0 0 P________PO___ IO071967 22.6300 89.1775 -1 22.6300 89.1775 TC 25 22.6000 89.2000 1 7 52
1967270N20089 1967 110 NI BB NOT_NAMED 1967-09-28 18:00:00 TS 22.7888 89.4855 main 0 0 O________OP___ jtwc_io IO071967 22.8000 89.5000 -1 22.8000 89.5000 TC 25 22.7666 89.4564 1 6 63
1967270N20089 1967 110 NI BB NOT_NAMED 1967-09-28 21:00:00 TS 22.9024 89.7829 main 0 0 P________PP___ IO071967 22.8999 89.8002 -1 22.8999 89.8002 TC 25 22.9074 89.7483 1 6 68
1967270N20089 1967 110 NI BB NOT_NAMED 1967-09-29 00:00:00 TS 23.0149 90.0886 main 0 0 O________OP___ jtwc_io IO071967 23.0000 90.1000 -1 23.0000 90.1000 TC 25 23.0446 90.0659 1 6 63
1967270N20089 1967 110 NI BB NOT_NAMED 1967-09-29 03:00:00 TS 23.1899 90.3950 main 0 0 P________PO___ IO071967 23.1849 90.3925 -1 23.1849 90.3925 TC 25 23.2000 90.4000 1 7 57
1967270N20089 1967 110 NI BB NOT_NAMED 1967-09-29 06:00:00 TS 23.3961 90.7170 main 0 0 O________OP___ jtwc_io IO071967 23.4000 90.7000 -1 23.4000 90.7000 TC 25 23.3903 90.7426 1 7 56
1967270N20089 1967 110 NI BB NOT_NAMED 1967-09-29 09:00:00 TS 23.6075 91.0618 main 0 0 P________PP___ IO071967 23.6052 91.0398 -1 23.6052 91.0398 TC 25 23.6106 91.0911 1 8 56
1967270N20089 1967 110 NI BB NOT_NAMED 1967-09-29 12:00:00 TS 23.8253 91.4220 main 0 0 O________OP___ jtwc_io IO071967 23.8000 91.4000 -1 23.8000 91.4000 TC 25 23.8506 91.4440 1 8 54
1967270N20089 1967 110 NI BB NOT_NAMED 1967-09-29 15:00:00 NR 24.1000 91.8000 main 0 __________O___ IO071967 -1 TC 24.1000 91.8000 1 9 51

About IBTrACS Database

This database is a web-friendly format of International Best Track Archive for Climate Stewardship (IBTrACS), a global best track data archive curated by NOAA dating back to 1842.

Updated: 2021-10-21